createdAt,value
2023-05-24T05:00:16.805Z,102386.72
2023-05-24T05:03:03.851Z,102383.00
2023-05-24T05:05:50.455Z,102388.13
2023-05-24T05:08:36.827Z,102394.38
2023-05-24T05:11:23.552Z,102390.44
2023-05-24T05:14:10.102Z,102384.56
2023-05-24T05:23:31.477Z,102390.50
2023-05-24T05:26:17.688Z,102389.34
2023-05-24T05:29:06.025Z,102392.75
2023-05-24T05:31:57.454Z,102401.13
2023-05-24T05:34:43.904Z,102400.88
2023-05-24T05:37:31.420Z,102399.91
2023-05-24T05:40:19.441Z,102405.56
2023-05-24T05:43:05.856Z,102406.63
2023-05-24T05:45:52.225Z,102409.09
2023-05-24T05:48:38.480Z,102406.50
2023-05-24T05:51:25.057Z,102415.72
2023-05-24T05:54:15.422Z,102415.41
2023-05-24T05:57:03.066Z,102415.31
2023-05-24T05:59:49.897Z,102418.75
2023-05-24T06:02:36.450Z,102406.16
2023-05-24T06:05:22.724Z,102410.03
2023-05-24T06:08:09.127Z,102411.50
2023-05-24T06:10:55.468Z,102417.06
2023-05-24T06:13:43.024Z,102407.91
2023-05-24T06:16:29.481Z,102405.41
2023-05-24T06:19:16.594Z,102412.66
2023-05-24T06:22:03.022Z,102406.59
2023-05-24T06:24:50.190Z,102413.38
2023-05-24T06:27:36.768Z,102417.56
2023-05-24T06:30:24.415Z,102416.16
2023-05-24T06:33:11.305Z,102413.16
2023-05-24T06:35:57.469Z,102418.81
2023-05-24T06:38:43.833Z,102423.81
2023-05-24T06:41:30.379Z,102430.28
2023-05-24T06:44:16.674Z,102434.63
2023-05-24T06:47:05.890Z,102434.44
2023-05-24T06:49:53.371Z,102438.06
2023-05-24T06:52:40.062Z,102437.53
2023-05-24T06:55:26.503Z,102435.19
2023-05-24T06:58:14.458Z,102435.94
2023-05-24T07:01:00.961Z,102435.56
2023-05-24T07:13:37.899Z,102428.44
2023-05-24T07:20:42.344Z,102441.38
2023-05-24T07:23:28.903Z,102440.78
2023-05-24T07:26:15.263Z,102441.09
2023-05-24T07:29:01.845Z,102444.69
2023-05-24T07:31:48.535Z,102434.13
2023-05-24T07:34:36.451Z,102429.13
2023-05-24T07:37:24.296Z,102424.25
2023-05-24T07:40:12.293Z,102428.88
2023-05-24T07:46:40.906Z,102433.06
2023-05-24T07:50:13.865Z,102434.53
2023-05-24T07:53:34.955Z,102428.19
2023-05-24T07:56:24.721Z,102437.94
2023-05-24T07:59:10.985Z,102434.25
2023-05-24T08:02:01.423Z,102434.75
2023-05-24T08:04:48.902Z,102437.84
2023-05-24T08:07:35.640Z,102437.63
2023-05-24T08:10:23.320Z,102445.78
2023-05-24T08:13:09.957Z,102430.75
2023-05-24T08:15:58.447Z,102442.13
2023-05-24T08:18:44.634Z,102428.88
2023-05-24T08:21:33.770Z,102434.56
2023-05-24T08:24:20.940Z,102439.22
2023-05-24T08:27:07.445Z,102435.41
2023-05-24T08:29:55.470Z,102437.91
2023-05-24T08:32:43.553Z,102433.56
2023-05-24T08:35:30.271Z,102430.72
2023-05-24T08:38:17.857Z,102432.00
2023-05-24T08:41:06.944Z,102437.25
2023-05-24T08:43:54.869Z,102431.59
2023-05-24T08:46:41.254Z,102433.50
2023-05-24T09:43:58.366Z,102406.31
2023-05-24T12:05:31.612Z,102392.63
2023-05-24T12:08:18.242Z,102402.81
2023-05-24T12:11:05.199Z,102392.41
2023-05-24T12:14:48.426Z,102390.66
2023-05-24T12:17:38.966Z,102388.34
2023-05-24T12:20:30.736Z,102390.09
2023-05-24T12:23:17.893Z,102388.19
2023-05-24T12:26:06.386Z,102385.50
2023-05-24T12:28:55.136Z,102379.81
2023-05-24T12:31:42.864Z,102380.22
2023-05-24T12:34:32.356Z,102387.31
2023-05-24T12:37:20.376Z,102379.47
2023-05-24T12:40:17.329Z,102389.16
2023-05-24T12:43:05.249Z,102377.31
2023-05-24T12:45:53.594Z,102380.97
2023-05-24T12:48:40.674Z,102385.59
2023-05-24T12:51:27.048Z,102389.81
2023-05-24T12:54:14.846Z,102387.31
2023-05-24T12:57:02.762Z,102395.19
2023-05-24T12:59:49.352Z,102387.03
2023-05-24T13:02:38.137Z,102390.41
2023-05-24T13:05:31.789Z,102394.72
2023-05-24T13:08:18.586Z,102388.94
2023-05-24T13:11:09.544Z,102382.88
2023-05-24T13:14:02.661Z,102378.38
2023-05-24T13:16:49.649Z,102374.28
2023-05-24T13:19:36.597Z,102389.31
2023-05-24T13:22:22.846Z,102387.75
2023-05-24T13:25:10.317Z,102393.59
2023-05-24T13:27:59.455Z,102397.16
2023-05-24T13:30:46.275Z,102389.50
2023-05-24T13:43:22.507Z,102382.47
2023-05-24T13:46:47.151Z,102382.00
2023-05-24T13:49:33.891Z,102375.16
2023-05-24T13:52:22.829Z,102371.41
2023-05-24T13:55:10.782Z,102374.00
2023-05-24T13:57:57.378Z,102374.81
2023-05-24T14:00:44.152Z,102385.69
2023-05-24T14:03:32.029Z,102382.09
2023-05-24T14:06:20.913Z,102380.63
2023-05-24T14:09:08.440Z,102385.09
2023-05-24T14:11:55.494Z,102382.47
2023-05-24T14:15:26.524Z,102377.22
2023-05-24T14:18:25.895Z,102383.56
2023-05-24T14:21:13.492Z,102378.44
2023-05-24T14:23:59.700Z,102382.44
2023-05-24T14:26:47.515Z,102382.28
2023-05-24T14:29:34.129Z,102378.56
2023-05-24T14:32:20.288Z,102385.88
2023-05-24T14:35:07.457Z,102379.88
2023-05-24T14:37:55.311Z,102384.06
2023-05-24T14:40:42.210Z,102382.91
2023-05-24T14:43:28.851Z,102378.31
2023-05-24T14:46:15.454Z,102385.19
2023-05-24T14:49:02.508Z,102381.41
2023-05-24T14:51:49.541Z,102386.09
2023-05-24T14:54:37.290Z,102379.28
2023-05-24T14:57:23.604Z,102382.00
2023-05-24T15:14:35.777Z,102378.25
2023-05-24T15:17:22.525Z,102382.31
2023-05-24T15:20:09.735Z,102377.75
2023-05-24T15:22:56.260Z,102381.31
2023-05-24T15:25:43.062Z,102380.38
2023-05-24T15:28:29.426Z,102379.81
2023-05-24T15:31:17.354Z,102381.88
2023-05-24T15:34:04.898Z,102382.13
2023-05-24T15:36:51.250Z,102386.03
2023-05-24T15:39:37.559Z,102389.16
2023-05-24T15:42:24.730Z,102384.75
2023-05-24T15:45:12.392Z,102382.97
2023-05-24T15:48:00.322Z,102379.66
2023-05-24T15:53:36.706Z,102375.66
2023-05-24T15:56:23.366Z,102387.31
2023-05-24T15:59:10.124Z,102380.25
2023-05-24T16:01:56.532Z,102378.84
2023-05-24T16:04:45.506Z,102385.34
2023-05-24T16:07:32.139Z,102383.81
2023-05-24T16:12:26.133Z,102382.28
2023-05-24T16:59:33.763Z,102367.41
2023-05-24T17:02:20.027Z,102361.44
2023-05-24T17:05:07.626Z,102360.72
2023-05-24T17:07:56.323Z,102363.88
2023-05-24T17:10:44.216Z,102365.03
2023-05-24T17:13:36.703Z,102360.84
2023-05-24T17:16:24.847Z,102357.94
2023-05-24T17:19:13.914Z,102354.09
2023-05-24T17:22:00.836Z,102355.50
2023-05-24T17:24:50.552Z,102361.00
2023-05-24T17:27:38.325Z,102357.75
2023-05-24T17:30:28.378Z,102363.50
2023-05-24T17:33:16.382Z,102364.56
2023-05-24T17:36:04.212Z,102358.66
2023-05-24T17:38:50.721Z,102366.59
2023-05-24T17:41:37.469Z,102360.50
2023-05-24T17:44:24.220Z,102362.41
2023-05-24T17:47:11.897Z,102368.75
2023-05-24T17:49:59.232Z,102372.34
2023-05-24T17:52:45.773Z,102373.22
2023-05-24T17:55:31.886Z,102379.88
2023-05-24T17:58:18.328Z,102375.47
2023-05-24T18:01:06.061Z,102379.53
2023-05-24T18:03:52.446Z,102388.00
2023-05-24T18:06:47.370Z,102389.25
2023-05-24T18:09:34.072Z,102379.25
2023-05-24T18:12:22.897Z,102384.16
2023-05-24T18:15:09.834Z,102380.22
2023-05-24T18:17:56.578Z,102381.06
2023-05-24T18:20:51.912Z,102386.78
2023-05-24T18:23:39.796Z,102389.53
2023-05-24T18:26:27.242Z,102392.69
2023-05-24T18:29:13.739Z,102386.34
2023-05-24T18:32:00.413Z,102395.44
2023-05-24T18:34:46.898Z,102392.25
2023-05-24T18:37:33.201Z,102389.75
2023-05-24T18:40:21.233Z,102393.53
2023-05-24T18:43:07.631Z,102390.72
2023-05-24T18:45:53.660Z,102392.25
2023-05-24T18:48:41.365Z,102391.28
2023-05-24T18:51:27.748Z,102398.97
2023-05-24T18:54:13.841Z,102402.19
2023-05-24T18:57:04.521Z,102401.38
2023-05-24T18:59:51.313Z,102407.72
2023-05-24T19:47:33.256Z,102445.47
2023-05-24T19:50:19.921Z,102438.91
2023-05-24T19:53:06.280Z,102450.22
2023-05-24T19:55:52.924Z,102448.84
2023-05-24T19:58:39.796Z,102451.47
2023-05-24T20:20:20.440Z,102466.59
2023-05-24T20:23:06.945Z,102472.44
2023-05-24T20:25:53.485Z,102476.13
2023-05-24T20:28:40.009Z,102481.69
2023-05-24T20:31:26.452Z,102471.88
2023-05-24T20:34:13.210Z,102475.53
2023-05-24T20:37:00.786Z,102481.97
2023-05-24T20:39:47.186Z,102486.59
2023-05-24T20:42:33.978Z,102481.31
2023-05-24T20:45:21.408Z,102478.97
2023-05-24T20:48:08.156Z,102482.34
2023-05-24T20:50:54.843Z,102478.28
2023-05-24T20:53:42.626Z,102485.84
2023-05-24T20:56:28.926Z,102483.03
2023-05-24T20:59:15.342Z,102483.63
2023-05-24T21:02:01.960Z,102490.72
2023-05-24T21:04:48.196Z,102482.81
2023-05-24T21:07:34.564Z,102485.53
2023-05-24T21:10:22.869Z,102479.66
2023-05-24T21:13:09.255Z,102479.38
2023-05-24T21:15:55.767Z,102482.81
2023-05-24T21:18:42.298Z,102489.59
2023-05-24T21:21:28.633Z,102499.28
2023-05-24T21:24:15.884Z,102496.31
2023-05-24T21:27:03.649Z,102499.25
2023-05-24T21:29:50.071Z,102492.47
2023-05-24T21:32:36.297Z,102508.38
2023-05-24T21:35:22.949Z,102504.34
2023-05-24T21:38:10.116Z,102506.06
2023-05-24T21:40:56.445Z,102508.44
2023-05-24T21:43:44.527Z,102517.13
2023-05-24T21:46:33.568Z,102516.31
2023-05-24T21:49:20.128Z,102510.84
2023-05-24T21:52:06.550Z,102515.78
2023-05-24T21:54:52.628Z,102516.59
2023-05-24T21:57:38.881Z,102517.91
2023-05-24T22:00:28.114Z,102531.97
2023-05-24T22:03:15.413Z,102526.59
2023-05-24T22:06:02.056Z,102539.28
2023-05-24T22:08:48.735Z,102528.38
2023-05-24T22:11:35.492Z,102527.31
2023-05-24T22:14:21.843Z,102541.19
